sensor_id;sensor_type;location;lat;lon;timestamp;pressure;altitude;pressure_sealevel;temperature;humidity
72110;BME280;59983;52.010;5.420;2023-04-25T00:01:49;101104.72;;;6.83;100.00
72110;BME280;59983;52.010;5.420;2023-04-25T00:04:17;101109.00;;;6.84;100.00
72110;BME280;59983;52.010;5.420;2023-04-25T00:06:44;101112.00;;;6.82;100.00
72110;BME280;59983;52.010;5.420;2023-04-25T00:09:11;101117.72;;;6.81;100.00
72110;BME280;59983;52.010;5.420;2023-04-25T00:11:37;101113.41;;;6.80;100.00
72110;BME280;59983;52.010;5.420;2023-04-25T00:14:04;101118.63;;;6.76;100.00
72110;BME280;59983;52.010;5.420;2023-04-25T00:16:31;101111.03;;;6.78;100.00
72110;BME280;59983;52.010;5.420;2023-04-25T00:19:01;101114.03;;;6.77;100.00
72110;BME280;59983;52.010;5.420;2023-04-25T00:21:28;101124.34;;;6.75;100.00
72110;BME280;59983;52.010;5.420;2023-04-25T00:23:55;101125.78;;;6.72;100.00
72110;BME280;59983;52.010;5.420;2023-04-25T00:26:22;101127.16;;;6.70;100.00
72110;BME280;59983;52.010;5.420;2023-04-25T00:28:49;101131.28;;;6.67;100.00
72110;BME280;59983;52.010;5.420;2023-04-25T00:31:15;101144.28;;;6.65;100.00
72110;BME280;59983;52.010;5.420;2023-04-25T00:33:42;101145.03;;;6.57;100.00
72110;BME280;59983;52.010;5.420;2023-04-25T00:36:09;101149.22;;;6.63;100.00
72110;BME280;59983;52.010;5.420;2023-04-25T00:38:35;101141.59;;;6.65;100.00
72110;BME280;59983;52.010;5.420;2023-04-25T00:41:05;101138.22;;;6.60;100.00
72110;BME280;59983;52.010;5.420;2023-04-25T00:43:32;101138.59;;;6.67;100.00
72110;BME280;59983;52.010;5.420;2023-04-25T00:46:00;101136.84;;;6.71;100.00
72110;BME280;59983;52.010;5.420;2023-04-25T00:48:26;101135.56;;;6.68;99.64
72110;BME280;59983;52.010;5.420;2023-04-25T00:50:55;101130.94;;;6.60;99.52
72110;BME280;59983;52.010;5.420;2023-04-25T00:53:25;101127.31;;;6.65;99.16
72110;BME280;59983;52.010;5.420;2023-04-25T00:55:52;101125.56;;;6.60;98.11
72110;BME280;59983;52.010;5.420;2023-04-25T00:58:20;101130.16;;;6.60;97.73
72110;BME280;59983;52.010;5.420;2023-04-25T01:00:49;101127.66;;;6.63;97.55
72110;BME280;59983;52.010;5.420;2023-04-25T01:03:17;101126.69;;;6.68;97.20
72110;BME280;59983;52.010;5.420;2023-04-25T01:05:46;101134.31;;;6.66;96.23
72110;BME280;59983;52.010;5.420;2023-04-25T01:08:14;101133.19;;;6.67;96.07
72110;BME280;59983;52.010;5.420;2023-04-25T01:10:41;101125.78;;;6.72;95.60
72110;BME280;59983;52.010;5.420;2023-04-25T01:13:07;101133.22;;;6.75;94.72
72110;BME280;59983;52.010;5.420;2023-04-25T01:15:34;101138.16;;;6.73;94.61
72110;BME280;59983;52.010;5.420;2023-04-25T01:18:03;101131.66;;;6.74;94.53
72110;BME280;59983;52.010;5.420;2023-04-25T01:20:31;101138.78;;;6.79;95.10
72110;BME280;59983;52.010;5.420;2023-04-25T01:22:59;101143.25;;;6.84;94.79
72110;BME280;59983;52.010;5.420;2023-04-25T01:25:25;101145.16;;;6.83;94.37
72110;BME280;59983;52.010;5.420;2023-04-25T01:27:52;101142.09;;;6.76;94.24
72110;BME280;59983;52.010;5.420;2023-04-25T01:30:19;101142.56;;;6.69;94.13
72110;BME280;59983;52.010;5.420;2023-04-25T01:32:47;101151.44;;;6.70;94.29
72110;BME280;59983;52.010;5.420;2023-04-25T01:35:14;101154.44;;;6.68;94.65
72110;BME280;59983;52.010;5.420;2023-04-25T01:37:42;101153.03;;;6.71;94.58
72110;BME280;59983;52.010;5.420;2023-04-25T01:40:10;101156.81;;;6.70;94.31
72110;BME280;59983;52.010;5.420;2023-04-25T01:42:39;101164.59;;;6.63;94.61
72110;BME280;59983;52.010;5.420;2023-04-25T01:45:07;101151.34;;;6.52;95.15
72110;BME280;59983;52.010;5.420;2023-04-25T01:47:34;101163.13;;;6.57;95.10
72110;BME280;59983;52.010;5.420;2023-04-25T01:50:04;101164.81;;;6.52;94.94
72110;BME280;59983;52.010;5.420;2023-04-25T01:52:31;101167.53;;;6.52;95.42
72110;BME280;59983;52.010;5.420;2023-04-25T01:54:59;101179.28;;;6.57;95.27
72110;BME280;59983;52.010;5.420;2023-04-25T01:57:27;101170.53;;;6.51;95.46
72110;BME280;59983;52.010;5.420;2023-04-25T02:00:02;101178.25;;;6.44;95.61
72110;BME280;59983;52.010;5.420;2023-04-25T02:02:29;101179.56;;;6.46;95.45
72110;BME280;59983;52.010;5.420;2023-04-25T02:04:56;101178.09;;;6.40;95.42
72110;BME280;59983;52.010;5.420;2023-04-25T02:07:22;101188.19;;;6.35;96.07
72110;BME280;59983;52.010;5.420;2023-04-25T02:09:49;101177.47;;;6.43;96.01
72110;BME280;59983;52.010;5.420;2023-04-25T02:12:16;101184.56;;;6.39;96.02
72110;BME280;59983;52.010;5.420;2023-04-25T02:14:42;101190.13;;;6.43;95.55
72110;BME280;59983;52.010;5.420;2023-04-25T02:17:09;101186.28;;;6.35;96.05
72110;BME280;59983;52.010;5.420;2023-04-25T02:19:35;101187.69;;;6.33;95.75
72110;BME280;59983;52.010;5.420;2023-04-25T02:22:02;101190.34;;;6.24;95.88
72110;BME280;59983;52.010;5.420;2023-04-25T02:24:28;101188.84;;;6.18;96.01
72110;BME280;59983;52.010;5.420;2023-04-25T02:26:55;101184.09;;;6.15;96.41
72110;BME280;59983;52.010;5.420;2023-04-25T02:29:23;101184.78;;;6.20;95.92
72110;BME280;59983;52.010;5.420;2023-04-25T02:31:49;101190.81;;;6.26;96.17
72110;BME280;59983;52.010;5.420;2023-04-25T02:34:16;101191.81;;;6.30;95.75
72110;BME280;59983;52.010;5.420;2023-04-25T02:36:42;101194.31;;;6.27;95.83
72110;BME280;59983;52.010;5.420;2023-04-25T02:39:09;101194.75;;;6.20;95.57
72110;BME280;59983;52.010;5.420;2023-04-25T02:41:36;101189.00;;;6.13;95.37
72110;BME280;59983;52.010;5.420;2023-04-25T02:44:03;101186.94;;;6.10;95.74
72110;BME280;59983;52.010;5.420;2023-04-25T02:46:29;101197.38;;;6.11;95.85
72110;BME280;59983;52.010;5.420;2023-04-25T02:49:06;101196.38;;;6.07;95.57
72110;BME280;59983;52.010;5.420;2023-04-25T02:51:32;101197.00;;;6.04;95.38
72110;BME280;59983;52.010;5.420;2023-04-25T02:53:59;101190.75;;;5.95;96.05
72110;BME280;59983;52.010;5.420;2023-04-25T02:56:25;101192.19;;;5.92;96.08
72110;BME280;59983;52.010;5.420;2023-04-25T02:58:53;101198.34;;;5.93;96.22
72110;BME280;59983;52.010;5.420;2023-04-25T03:01:20;101189.97;;;5.81;96.23
72110;BME280;59983;52.010;5.420;2023-04-25T03:03:46;101197.00;;;5.68;96.46
72110;BME280;59983;52.010;5.420;2023-04-25T03:06:14;101194.53;;;5.58;97.40
72110;BME280;59983;52.010;5.420;2023-04-25T03:08:41;101195.72;;;5.52;97.84
72110;BME280;59983;52.010;5.420;2023-04-25T03:11:09;101199.63;;;5.46;97.69
72110;BME280;59983;52.010;5.420;2023-04-25T03:13:36;101197.72;;;5.46;98.67
72110;BME280;59983;52.010;5.420;2023-04-25T03:16:03;101200.81;;;5.53;98.09
72110;BME280;59983;52.010;5.420;2023-04-25T03:18:30;101205.56;;;5.56;98.16
72110;BME280;59983;52.010;5.420;2023-04-25T03:20:56;101206.09;;;5.58;98.25
72110;BME280;59983;52.010;5.420;2023-04-25T03:23:23;101209.75;;;5.62;98.09
72110;BME280;59983;52.010;5.420;2023-04-25T03:25:49;101208.66;;;5.63;97.62
72110;BME280;59983;52.010;5.420;2023-04-25T03:28:16;101213.94;;;5.68;97.79
72110;BME280;59983;52.010;5.420;2023-04-25T03:30:43;101220.13;;;5.69;97.55
72110;BME280;59983;52.010;5.420;2023-04-25T03:33:09;101204.75;;;5.69;97.17
72110;BME280;59983;52.010;5.420;2023-04-25T03:35:36;101208.44;;;5.74;96.84
72110;BME280;59983;52.010;5.420;2023-04-25T03:38:02;101218.31;;;5.64;97.58
72110;BME280;59983;52.010;5.420;2023-04-25T03:40:29;101217.81;;;5.62;97.11
72110;BME280;59983;52.010;5.420;2023-04-25T03:42:55;101214.97;;;5.59;97.66
72110;BME280;59983;52.010;5.420;2023-04-25T03:45:22;101224.81;;;5.63;97.33
72110;BME280;59983;52.010;5.420;2023-04-25T03:47:48;101218.31;;;5.64;97.79
72110;BME280;59983;52.010;5.420;2023-04-25T03:50:15;101223.28;;;5.71;97.57
72110;BME280;59983;52.010;5.420;2023-04-25T03:52:43;101217.72;;;5.67;97.44
72110;BME280;59983;52.010;5.420;2023-04-25T03:55:09;101228.28;;;5.64;97.13
72110;BME280;59983;52.010;5.420;2023-04-25T03:57:36;101225.22;;;5.57;96.97
72110;BME280;59983;52.010;5.420;2023-04-25T04:00:03;101229.59;;;5.53;97.97
72110;BME280;59983;52.010;5.420;2023-04-25T04:02:31;101237.59;;;5.58;97.90
72110;BME280;59983;52.010;5.420;2023-04-25T04:04:58;101229.69;;;5.61;97.75
72110;BME280;59983;52.010;5.420;2023-04-25T04:07:24;101231.78;;;5.64;98.03
72110;BME280;59983;52.010;5.420;2023-04-25T04:09:51;101242.25;;;5.66;98.10
72110;BME280;59983;52.010;5.420;2023-04-25T04:12:17;101237.47;;;5.63;97.48
72110;BME280;59983;52.010;5.420;2023-04-25T04:14:44;101235.25;;;5.65;97.67
72110;BME280;59983;52.010;5.420;2023-04-25T04:17:10;101241.16;;;5.67;97.17
72110;BME280;59983;52.010;5.420;2023-04-25T04:19:37;101235.38;;;5.60;97.33
72110;BME280;59983;52.010;5.420;2023-04-25T04:22:03;101240.28;;;5.58;97.48
72110;BME280;59983;52.010;5.420;2023-04-25T04:24:30;101241.97;;;5.54;97.71
72110;BME280;59983;52.010;5.420;2023-04-25T04:26:56;101246.63;;;5.62;97.60
72110;BME280;59983;52.010;5.420;2023-04-25T04:29:23;101250.81;;;5.68;97.89
72110;BME280;59983;52.010;5.420;2023-04-25T04:31:50;101248.94;;;5.68;98.26
72110;BME280;59983;52.010;5.420;2023-04-25T04:34:17;101258.78;;;5.73;98.09
72110;BME280;59983;52.010;5.420;2023-04-25T04:36:45;101264.94;;;5.74;97.62
72110;BME280;59983;52.010;5.420;2023-04-25T04:39:14;101268.94;;;5.76;97.46
72110;BME280;59983;52.010;5.420;2023-04-25T04:41:41;101273.31;;;5.72;97.49
72110;BME280;59983;52.010;5.420;2023-04-25T04:44:09;101264.94;;;5.74;97.26
72110;BME280;59983;52.010;5.420;2023-04-25T04:46:36;101271.34;;;5.78;96.36
72110;BME280;59983;52.010;5.420;2023-04-25T04:49:09;101269.25;;;5.75;96.88
72110;BME280;59983;52.010;5.420;2023-04-25T04:51:36;101265.94;;;5.78;96.72
72110;BME280;59983;52.010;5.420;2023-04-25T04:54:03;101277.03;;;5.76;96.78
72110;BME280;59983;52.010;5.420;2023-04-25T04:56:30;101272.44;;;5.77;95.84
72110;BME280;59983;52.010;5.420;2023-04-25T04:58:57;101278.78;;;5.81;96.26
72110;BME280;59983;52.010;5.420;2023-04-25T05:01:26;101284.66;;;5.83;95.76
72110;BME280;59983;52.010;5.420;2023-04-25T05:03:52;101284.19;;;5.81;95.68
72110;BME280;59983;52.010;5.420;2023-04-25T05:06:20;101285.09;;;5.76;95.45
72110;BME280;59983;52.010;5.420;2023-04-25T05:08:46;101275.81;;;5.82;96.04
72110;BME280;59983;52.010;5.420;2023-04-25T05:11:13;101280.72;;;5.94;95.71
72110;BME280;59983;52.010;5.420;2023-04-25T05:13:39;101295.75;;;5.95;95.61
72110;BME280;59983;52.010;5.420;2023-04-25T05:16:06;101289.97;;;5.88;94.86
72110;BME280;59983;52.010;5.420;2023-04-25T05:18:32;101287.75;;;5.90;95.13
72110;BME280;59983;52.010;5.420;2023-04-25T05:20:59;101299.88;;;5.92;95.08
72110;BME280;59983;52.010;5.420;2023-04-25T05:23:25;101307.81;;;5.97;95.13
72110;BME280;59983;52.010;5.420;2023-04-25T05:25:54;101298.16;;;5.96;95.36
72110;BME280;59983;52.010;5.420;2023-04-25T05:28:20;101312.72;;;5.95;95.17
72110;BME280;59983;52.010;5.420;2023-04-25T05:30:47;101317.63;;;5.93;94.97
72110;BME280;59983;52.010;5.420;2023-04-25T05:33:14;101316.50;;;5.94;95.21
72110;BME280;59983;52.010;5.420;2023-04-25T05:35:41;101324.38;;;6.05;95.06
72110;BME280;59983;52.010;5.420;2023-04-25T05:38:07;101319.75;;;6.19;95.20
72110;BME280;59983;52.010;5.420;2023-04-25T05:40:34;101322.16;;;6.20;94.80
72110;BME280;59983;52.010;5.420;2023-04-25T05:43:01;101324.03;;;6.20;94.08
72110;BME280;59983;52.010;5.420;2023-04-25T05:45:27;101320.34;;;6.16;94.23
72110;BME280;59983;52.010;5.420;2023-04-25T05:47:54;101333.31;;;6.28;94.50
72110;BME280;59983;52.010;5.420;2023-04-25T05:50:20;101327.31;;;6.31;92.56
72110;BME280;59983;52.010;5.420;2023-04-25T05:52:47;101335.91;;;6.19;92.04
72110;BME280;59983;52.010;5.420;2023-04-25T05:55:13;101332.84;;;6.12;92.96
72110;BME280;59983;52.010;5.420;2023-04-25T05:57:41;101338.63;;;6.19;92.66
72110;BME280;59983;52.010;5.420;2023-04-25T06:00:09;101339.75;;;6.27;92.53
72110;BME280;59983;52.010;5.420;2023-04-25T06:02:35;101344.88;;;6.28;91.78
72110;BME280;59983;52.010;5.420;2023-04-25T06:05:02;101340.63;;;6.36;91.19
72110;BME280;59983;52.010;5.420;2023-04-25T06:07:30;101342.53;;;6.35;91.12
72110;BME280;59983;52.010;5.420;2023-04-25T06:09:57;101344.81;;;6.42;91.26
72110;BME280;59983;52.010;5.420;2023-04-25T06:12:23;101344.72;;;6.47;91.06
72110;BME280;59983;52.010;5.420;2023-04-25T06:14:50;101351.78;;;6.57;90.52
72110;BME280;59983;52.010;5.420;2023-04-25T06:17:16;101356.06;;;6.58;90.14
72110;BME280;59983;52.010;5.420;2023-04-25T06:19:43;101356.84;;;6.58;90.20
72110;BME280;59983;52.010;5.420;2023-04-25T06:22:09;101356.53;;;6.60;89.03
72110;BME280;59983;52.010;5.420;2023-04-25T06:24:36;101373.41;;;6.65;89.09
72110;BME280;59983;52.010;5.420;2023-04-25T06:27:03;101369.53;;;6.80;89.70
72110;BME280;59983;52.010;5.420;2023-04-25T06:29:29;101368.31;;;6.86;87.37
72110;BME280;59983;52.010;5.420;2023-04-25T06:31:56;101371.06;;;6.95;88.42
72110;BME280;59983;52.010;5.420;2023-04-25T06:34:23;101372.97;;;6.94;86.81
72110;BME280;59983;52.010;5.420;2023-04-25T06:36:50;101371.28;;;6.98;87.53
72110;BME280;59983;52.010;5.420;2023-04-25T06:39:16;101373.34;;;7.01;85.63
72110;BME280;59983;52.010;5.420;2023-04-25T06:41:43;101374.16;;;7.02;86.46
72110;BME280;59983;52.010;5.420;2023-04-25T06:44:09;101377.81;;;7.06;86.98
72110;BME280;59983;52.010;5.420;2023-04-25T06:46:36;101374.38;;;7.14;86.44
72110;BME280;59983;52.010;5.420;2023-04-25T06:49:04;101379.34;;;7.21;86.23
72110;BME280;59983;52.010;5.420;2023-04-25T06:51:30;101383.94;;;7.20;84.49
72110;BME280;59983;52.010;5.420;2023-04-25T06:53:57;101380.38;;;7.33;85.42
72110;BME280;59983;52.010;5.420;2023-04-25T06:56:24;101383.41;;;7.41;85.15
72110;BME280;59983;52.010;5.420;2023-04-25T06:58:50;101378.38;;;7.48;84.66
72110;BME280;59983;52.010;5.420;2023-04-25T07:01:17;101394.47;;;7.61;82.25
72110;BME280;59983;52.010;5.420;2023-04-25T07:03:44;101395.06;;;7.58;82.88
72110;BME280;59983;52.010;5.420;2023-04-25T07:06:11;101392.69;;;7.57;81.40
72110;BME280;59983;52.010;5.420;2023-04-25T07:08:37;101395.78;;;7.73;83.30
72110;BME280;59983;52.010;5.420;2023-04-25T07:11:04;101393.94;;;7.90;82.43
72110;BME280;59983;52.010;5.420;2023-04-25T07:13:30;101410.97;;;8.00;80.06
72110;BME280;59983;52.010;5.420;2023-04-25T07:15:57;101402.22;;;7.94;79.79
72110;BME280;59983;52.010;5.420;2023-04-25T07:18:23;101405.72;;;8.03;79.06
72110;BME280;59983;52.010;5.420;2023-04-25T07:20:50;101417.34;;;8.12;80.03
72110;BME280;59983;52.010;5.420;2023-04-25T07:23:17;101410.69;;;8.10;77.11
72110;BME280;59983;52.010;5.420;2023-04-25T07:25:43;101422.47;;;8.14;78.25
72110;BME280;59983;52.010;5.420;2023-04-25T07:28:09;101415.78;;;8.11;75.97
72110;BME280;59983;52.010;5.420;2023-04-25T07:30:36;101416.78;;;8.24;77.19
72110;BME280;59983;52.010;5.420;2023-04-25T07:33:03;101412.19;;;8.33;77.04
72110;BME280;59983;52.010;5.420;2023-04-25T07:35:29;101424.19;;;8.58;76.06
72110;BME280;59983;52.010;5.420;2023-04-25T07:37:56;101429.75;;;8.62;73.26
72110;BME280;59983;52.010;5.420;2023-04-25T07:40:22;101431.97;;;8.77;75.55
72110;BME280;59983;52.010;5.420;2023-04-25T07:42:49;101429.91;;;8.91;72.66
72110;BME280;59983;52.010;5.420;2023-04-25T07:45:15;101433.09;;;9.02;71.38
72110;BME280;59983;52.010;5.420;2023-04-25T07:47:42;101433.84;;;9.37;74.03
72110;BME280;59983;52.010;5.420;2023-04-25T07:50:09;101435.22;;;9.52;71.23
72110;BME280;59983;52.010;5.420;2023-04-25T07:52:36;101437.44;;;9.58;70.21
72110;BME280;59983;52.010;5.420;2023-04-25T07:55:03;101429.53;;;9.36;66.71
72110;BME280;59983;52.010;5.420;2023-04-25T07:57:30;101435.44;;;9.38;67.10
72110;BME280;59983;52.010;5.420;2023-04-25T07:59:57;101436.84;;;9.35;66.74
72110;BME280;59983;52.010;5.420;2023-04-25T08:02:23;101428.13;;;9.21;67.30
72110;BME280;59983;52.010;5.420;2023-04-25T08:04:52;101449.16;;;8.98;64.46
72110;BME280;59983;52.010;5.420;2023-04-25T08:07:19;101446.31;;;8.86;66.31
72110;BME280;59983;52.010;5.420;2023-04-25T08:09:45;101456.31;;;8.86;66.07
72110;BME280;59983;52.010;5.420;2023-04-25T08:12:12;101460.44;;;8.83;66.77
72110;BME280;59983;52.010;5.420;2023-04-25T08:14:38;101470.00;;;8.72;66.15
72110;BME280;59983;52.010;5.420;2023-04-25T08:17:06;101461.28;;;8.84;66.61
72110;BME280;59983;52.010;5.420;2023-04-25T08:19:32;101474.94;;;9.04;65.42
72110;BME280;59983;52.010;5.420;2023-04-25T08:21:59;101466.03;;;9.13;65.15
72110;BME280;59983;52.010;5.420;2023-04-25T08:24:25;101468.25;;;9.36;66.33
72110;BME280;59983;52.010;5.420;2023-04-25T08:26:52;101476.78;;;9.64;63.32
72110;BME280;59983;52.010;5.420;2023-04-25T08:29:18;101470.38;;;9.78;64.98
72110;BME280;59983;52.010;5.420;2023-04-25T08:31:45;101475.66;;;10.12;66.70
72110;BME280;59983;52.010;5.420;2023-04-25T08:34:12;101475.06;;;9.98;64.38
72110;BME280;59983;52.010;5.420;2023-04-25T08:36:38;101483.41;;;9.84;62.53
72110;BME280;59983;52.010;5.420;2023-04-25T08:39:06;101486.28;;;9.79;61.61
72110;BME280;59983;52.010;5.420;2023-04-25T08:41:33;101484.81;;;9.99;61.06
72110;BME280;59983;52.010;5.420;2023-04-25T08:44:00;101489.16;;;10.21;63.47
72110;BME280;59983;52.010;5.420;2023-04-25T08:46:30;101486.69;;;10.45;62.62
72110;BME280;59983;52.010;5.420;2023-04-25T08:49:00;101489.47;;;10.58;59.89
72110;BME280;59983;52.010;5.420;2023-04-25T08:51:31;101503.38;;;10.56;60.63
72110;BME280;59983;52.010;5.420;2023-04-25T08:54:10;101506.06;;;10.35;59.74
72110;BME280;59983;52.010;5.420;2023-04-25T08:57:01;101510.63;;;9.97;61.20
72110;BME280;59983;52.010;5.420;2023-04-25T08:59:32;101515.94;;;10.31;62.57
72110;BME280;59983;52.010;5.420;2023-04-25T09:02:00;101522.47;;;10.89;60.86
72110;BME280;59983;52.010;5.420;2023-04-25T09:04:26;101523.41;;;11.35;59.56
72110;BME280;59983;52.010;5.420;2023-04-25T09:06:53;101516.13;;;11.60;56.90
72110;BME280;59983;52.010;5.420;2023-04-25T09:09:20;101524.94;;;11.57;55.05
72110;BME280;59983;52.010;5.420;2023-04-25T09:11:46;101536.78;;;11.19;54.21
72110;BME280;59983;52.010;5.420;2023-04-25T09:14:21;101552.91;;;10.74;56.34
72110;BME280;59983;52.010;5.420;2023-04-25T09:16:59;101557.56;;;10.35;55.52
72110;BME280;59983;52.010;5.420;2023-04-25T09:19:30;101561.59;;;10.12;55.82
72110;BME280;59983;52.010;5.420;2023-04-25T09:22:07;101558.97;;;9.86;55.78
72110;BME280;59983;52.010;5.420;2023-04-25T09:24:43;101560.75;;;9.64;54.20
72110;BME280;59983;52.010;5.420;2023-04-25T09:27:17;101568.88;;;9.56;55.25
72110;BME280;59983;52.010;5.420;2023-04-25T09:29:44;101560.91;;;9.68;56.45
72110;BME280;59983;52.010;5.420;2023-04-25T09:32:19;101555.53;;;10.15;55.09
72110;BME280;59983;52.010;5.420;2023-04-25T09:34:51;101547.94;;;10.76;56.13
72110;BME280;59983;52.010;5.420;2023-04-25T09:37:20;101565.78;;;11.06;54.39
72110;BME280;59983;52.010;5.420;2023-04-25T09:39:54;101567.94;;;10.71;54.71
72110;BME280;59983;52.010;5.420;2023-04-25T09:42:26;101562.25;;;10.56;55.95
72110;BME280;59983;52.010;5.420;2023-04-25T09:44:54;101563.94;;;10.69;58.62
72110;BME280;59983;52.010;5.420;2023-04-25T09:47:24;101564.50;;;11.04;56.51
72110;BME280;59983;52.010;5.420;2023-04-25T09:49:52;101569.13;;;11.33;57.23
72110;BME280;59983;52.010;5.420;2023-04-25T09:52:21;101568.88;;;11.80;55.34
72110;BME280;59983;52.010;5.420;2023-04-25T09:54:51;101567.22;;;12.00;52.98
72110;BME280;59983;52.010;5.420;2023-04-25T09:57:20;101559.53;;;11.69;51.87
72110;BME280;59983;52.010;5.420;2023-04-25T09:59:51;101571.16;;;11.36;53.76
72110;BME280;59983;52.010;5.420;2023-04-25T10:02:20;101569.31;;;11.28;54.21
72110;BME280;59983;52.010;5.420;2023-04-25T10:04:51;101573.16;;;11.06;54.69
72110;BME280;59983;52.010;5.420;2023-04-25T10:07:24;101578.69;;;10.89;55.21
72110;BME280;59983;52.010;5.420;2023-04-25T10:10:00;101596.97;;;10.71;55.33
72110;BME280;59983;52.010;5.420;2023-04-25T10:12:32;101588.56;;;10.64;56.26
72110;BME280;59983;52.010;5.420;2023-04-25T10:14:59;101603.13;;;10.50;55.19
72110;BME280;59983;52.010;5.420;2023-04-25T10:17:27;101604.16;;;10.20;57.95
72110;BME280;59983;52.010;5.420;2023-04-25T10:19:57;101606.53;;;10.21;59.12
72110;BME280;59983;52.010;5.420;2023-04-25T10:22:32;101603.69;;;10.18;59.34
72110;BME280;59983;52.010;5.420;2023-04-25T10:25:01;101607.09;;;10.62;59.37
72110;BME280;59983;52.010;5.420;2023-04-25T10:27:31;101613.69;;;10.43;57.91
72110;BME280;59983;52.010;5.420;2023-04-25T10:30:02;101607.81;;;10.33;57.57
72110;BME280;59983;52.010;5.420;2023-04-25T10:32:32;101604.91;;;10.46;59.57
72110;BME280;59983;52.010;5.420;2023-04-25T10:35:16;101605.78;;;10.59;58.05
72110;BME280;59983;52.010;5.420;2023-04-25T10:40:32;101608.84;;;10.58;57.64
72110;BME280;59983;52.010;5.420;2023-04-25T10:45:59;101614.44;;;10.91;59.57
72110;BME280;59983;52.010;5.420;2023-04-25T10:48:31;101617.19;;;10.82;57.09
72110;BME280;59983;52.010;5.420;2023-04-25T10:51:11;101609.72;;;10.79;59.30
72110;BME280;59983;52.010;5.420;2023-04-25T10:53:38;101613.63;;;10.90;57.35
72110;BME280;59983;52.010;5.420;2023-04-25T10:56:31;101615.09;;;10.88;56.80
72110;BME280;59983;52.010;5.420;2023-04-25T10:59:28;101614.75;;;10.89;57.99
72110;BME280;59983;52.010;5.420;2023-04-25T11:01:55;101618.03;;;11.03;56.15
72110;BME280;59983;52.010;5.420;2023-04-25T11:04:23;101621.88;;;11.02;57.97
72110;BME280;59983;52.010;5.420;2023-04-25T11:09:38;101613.53;;;11.07;51.91
72110;BME280;59983;52.010;5.420;2023-04-25T11:12:09;101605.66;;;10.85;51.38
72110;BME280;59983;52.010;5.420;2023-04-25T11:14:38;101619.19;;;10.64;51.89
72110;BME280;59983;52.010;5.420;2023-04-25T11:17:05;101620.47;;;10.58;51.90
72110;BME280;59983;52.010;5.420;2023-04-25T11:19:32;101626.94;;;10.45;52.80
72110;BME280;59983;52.010;5.420;2023-04-25T11:22:00;101620.28;;;10.34;53.45
72110;BME280;59983;52.010;5.420;2023-04-25T11:24:28;101624.53;;;10.43;55.02
72110;BME280;59983;52.010;5.420;2023-04-25T11:26:57;101628.78;;;10.62;54.53
72110;BME280;59983;52.010;5.420;2023-04-25T11:29:28;101622.94;;;10.81;55.58
72110;BME280;59983;52.010;5.420;2023-04-25T11:31:55;101615.19;;;11.21;53.48
72110;BME280;59983;52.010;5.420;2023-04-25T11:34:25;101614.59;;;11.57;55.04
72110;BME280;59983;52.010;5.420;2023-04-25T11:36:52;101618.53;;;11.68;53.61
72110;BME280;59983;52.010;5.420;2023-04-25T11:39:20;101627.00;;;11.46;53.55
72110;BME280;59983;52.010;5.420;2023-04-25T11:41:47;101643.03;;;10.88;56.17
72110;BME280;59983;52.010;5.420;2023-04-25T11:44:17;101644.47;;;10.47;57.08
72110;BME280;59983;52.010;5.420;2023-04-25T11:46:45;101640.84;;;10.35;57.21
72110;BME280;59983;52.010;5.420;2023-04-25T11:49:12;101646.72;;;10.37;56.87
72110;BME280;59983;52.010;5.420;2023-04-25T11:51:42;101653.41;;;10.39;57.49
72110;BME280;59983;52.010;5.420;2023-04-25T11:54:10;101650.13;;;10.72;55.80
72110;BME280;59983;52.010;5.420;2023-04-25T11:56:36;101650.50;;;10.62;54.87
72110;BME280;59983;52.010;5.420;2023-04-25T11:59:04;101651.44;;;10.57;56.61
72110;BME280;59983;52.010;5.420;2023-04-25T12:01:34;101658.56;;;10.79;56.59
72110;BME280;59983;52.010;5.420;2023-04-25T12:04:15;101665.34;;;10.94;55.22
72110;BME280;59983;52.010;5.420;2023-04-25T12:06:45;101658.19;;;10.89;54.89
72110;BME280;59983;52.010;5.420;2023-04-25T12:09:17;101658.75;;;11.33;56.45
72110;BME280;59983;52.010;5.420;2023-04-25T12:11:46;101655.28;;;12.07;56.02
72110;BME280;59983;52.010;5.420;2023-04-25T12:14:24;101659.03;;;12.03;49.79
72110;BME280;59983;52.010;5.420;2023-04-25T12:16:55;101656.34;;;12.15;50.30
72110;BME280;59983;52.010;5.420;2023-04-25T12:19:24;101659.56;;;12.29;46.48
72110;BME280;59983;52.010;5.420;2023-04-25T12:21:51;101652.56;;;12.53;49.18
72110;BME280;59983;52.010;5.420;2023-04-25T12:24:23;101658.38;;;12.75;46.90
72110;BME280;59983;52.010;5.420;2023-04-25T12:29:24;101667.84;;;12.00;48.60
72110;BME280;59983;52.010;5.420;2023-04-25T12:31:57;101676.16;;;11.32;49.41
72110;BME280;59983;52.010;5.420;2023-04-25T12:34:24;101677.31;;;11.52;48.08
72110;BME280;59983;52.010;5.420;2023-04-25T12:36:51;101680.25;;;11.68;48.70
72110;BME280;59983;52.010;5.420;2023-04-25T12:39:23;101671.34;;;11.79;46.81
72110;BME280;59983;52.010;5.420;2023-04-25T12:41:51;101688.41;;;11.68;46.62
72110;BME280;59983;52.010;5.420;2023-04-25T12:44:20;101678.44;;;11.72;46.40
72110;BME280;59983;52.010;5.420;2023-04-25T12:46:47;101679.44;;;12.09;48.27
72110;BME280;59983;52.010;5.420;2023-04-25T12:49:14;101681.97;;;12.26;48.64
72110;BME280;59983;52.010;5.420;2023-04-25T12:51:44;101688.78;;;12.77;42.89
72110;BME280;59983;52.010;5.420;2023-04-25T12:54:11;101688.78;;;12.77;44.76
72110;BME280;59983;52.010;5.420;2023-04-25T12:56:38;101687.44;;;12.84;41.64
72110;BME280;59983;52.010;5.420;2023-04-25T12:59:04;101683.56;;;12.97;41.49
72110;BME280;59983;52.010;5.420;2023-04-25T13:01:31;101693.56;;;12.93;43.20
72110;BME280;59983;52.010;5.420;2023-04-25T13:04:01;101683.09;;;12.58;42.95
72110;BME280;59983;52.010;5.420;2023-04-25T13:06:28;101685.59;;;12.63;45.10
72110;BME280;59983;52.010;5.420;2023-04-25T13:08:56;101685.34;;;12.56;42.41
72110;BME280;59983;52.010;5.420;2023-04-25T13:11:23;101686.50;;;12.22;44.76
72110;BME280;59983;52.010;5.420;2023-04-25T13:13:49;101686.97;;;12.69;45.82